createdAt,value
2023-03-23T00:00:54.332Z,198.3
2023-03-23T00:05:53.558Z,110.4
2023-03-23T00:10:52.939Z,56.3
2023-03-23T00:15:52.373Z,51.0
2023-03-23T00:20:51.750Z,26.7
2023-03-23T00:25:51.220Z,43.2
2023-03-23T00:30:50.608Z,23.0
2023-03-23T00:35:50.127Z,30.5
2023-03-23T00:40:49.495Z,13.8
2023-03-23T00:45:48.960Z,13.9
2023-03-23T00:50:48.322Z,22.3
2023-03-23T00:55:48.055Z,17.9
2023-03-23T01:00:47.175Z,9.8
2023-03-23T01:05:46.570Z,5.0
2023-03-23T01:10:45.976Z,7.0
2023-03-23T01:15:45.459Z,5.5
2023-03-23T01:20:44.929Z,5.3
2023-03-23T01:25:44.412Z,3.0
2023-03-23T01:30:43.757Z,4.5
2023-03-23T01:35:43.981Z,9.7
2023-03-23T01:40:42.610Z,12.6
2023-03-23T01:45:42.529Z,8.4
2023-03-23T01:50:41.466Z,2.3
2023-03-23T01:55:41.005Z,8.3
2023-03-23T02:00:40.352Z,3.7
2023-03-23T02:10:39.235Z,1.3
2023-03-23T02:15:38.663Z,15.2
2023-03-23T02:20:38.030Z,2.8
2023-03-23T02:25:37.356Z,1.2
2023-03-23T02:30:36.766Z,8.5
2023-03-23T02:35:36.184Z,6.0
2023-03-23T02:45:35.020Z,4.1
2023-03-23T02:50:34.353Z,1.2
2023-03-23T02:55:33.853Z,6.6
2023-03-23T03:00:33.251Z,6.6
2023-03-23T03:05:35.003Z,6.2
2023-03-23T03:10:32.122Z,1.1
2023-03-23T03:15:31.700Z,2.0
2023-03-23T03:20:32.916Z,3.1
2023-03-23T03:30:29.726Z,4.9
2023-03-23T03:35:28.966Z,10.2
2023-03-23T03:40:28.482Z,3.3
2023-03-23T03:45:27.740Z,1.6
2023-03-23T03:50:27.187Z,6.1
2023-03-23T03:55:26.617Z,5.7
2023-03-23T04:00:26.060Z,0.6
2023-03-23T04:05:25.412Z,2.9
2023-03-23T04:10:32.718Z,5.5
2023-03-23T04:15:24.202Z,2.1
2023-03-23T04:20:31.339Z,1.5
2023-03-23T04:25:23.167Z,8.0
2023-03-23T04:30:22.386Z,7.0
2023-03-23T04:35:21.736Z,7.0
2023-03-23T04:40:21.166Z,4.3
2023-03-23T04:45:20.551Z,4.1
2023-03-23T04:50:20.002Z,5.4
2023-03-23T04:55:19.383Z,3.6
2023-03-23T05:00:18.768Z,9.0
2023-03-23T05:05:18.226Z,2.2
2023-03-23T05:15:17.009Z,12.7
2023-03-23T05:20:16.351Z,12.7
2023-03-23T05:25:15.827Z,4.5
2023-03-23T05:30:15.142Z,1.2
2023-03-23T05:35:14.557Z,1.2
2023-03-23T05:40:14.115Z,3.9
2023-03-23T05:45:13.294Z,3.1
2023-03-23T05:50:12.618Z,0.9
2023-03-23T05:55:12.067Z,3.0
2023-03-23T06:00:13.751Z,3.0
2023-03-23T06:05:11.138Z,3.5
2023-03-23T06:10:10.374Z,10.6
2023-03-23T06:15:09.754Z,10.6
2023-03-23T06:20:09.232Z,7.4
2023-03-23T06:25:08.610Z,2.5
2023-03-23T06:30:07.998Z,7.3
2023-03-23T06:35:07.445Z,2.5
2023-03-23T06:45:06.240Z,9.5
2023-03-23T06:50:05.564Z,2.3
2023-03-23T06:55:05.076Z,8.0
2023-03-23T07:00:04.339Z,9.8
2023-03-23T07:05:03.779Z,4.9
2023-03-23T07:10:03.286Z,10.0
2023-03-23T07:15:02.656Z,17.1
2023-03-23T07:20:02.062Z,3.8
2023-03-23T07:25:01.619Z,12.5
2023-03-23T07:30:00.899Z,7.5
2023-03-23T07:39:59.852Z,5.7
2023-03-23T07:45:01.613Z,9.8
2023-03-23T07:49:58.782Z,9.0
2023-03-23T07:54:58.384Z,7.2
2023-03-23T07:59:57.918Z,6.0
2023-03-23T08:04:59.398Z,8.4
2023-03-23T08:09:56.833Z,8.4
2023-03-23T08:14:58.395Z,9.9
2023-03-23T08:19:55.900Z,2.8
2023-03-23T08:24:55.464Z,9.4
2023-03-23T08:29:54.996Z,11.3
2023-03-23T08:34:54.910Z,8.4
2023-03-23T08:39:54.327Z,18.3
2023-03-23T08:44:53.869Z,4.9
2023-03-23T08:49:53.298Z,9.5
2023-03-23T08:54:52.951Z,11.9
2023-03-23T08:59:52.445Z,5.4
2023-03-23T09:04:52.007Z,10.4
2023-03-23T09:09:51.693Z,7.9
2023-03-23T09:14:51.246Z,6.9
2023-03-23T09:19:50.869Z,6.4
2023-03-23T09:24:50.479Z,8.0
2023-03-23T09:29:50.068Z,11.3
2023-03-23T09:34:49.645Z,5.3
2023-03-23T09:39:49.314Z,9.7
2023-03-23T09:44:48.896Z,4.4
2023-03-23T09:49:50.274Z,4.7
2023-03-23T09:54:48.105Z,8.7
2023-03-23T09:59:47.725Z,11.9
2023-03-23T10:04:47.359Z,8.0
2023-03-23T10:09:47.170Z,6.8
2023-03-23T10:14:48.660Z,10.0
2023-03-23T10:19:48.284Z,4.9
2023-03-23T10:24:45.922Z,8.4
2023-03-23T10:29:46.115Z,7.1
2023-03-23T10:34:45.176Z,4.0
2023-03-23T10:39:44.933Z,6.7
2023-03-23T10:44:44.532Z,8.6
2023-03-23T10:49:44.302Z,4.6
2023-03-23T10:54:44.106Z,5.5
2023-03-23T10:59:43.652Z,5.1
2023-03-23T11:04:43.360Z,7.3
2023-03-23T11:09:43.049Z,8.9
2023-03-23T11:14:42.804Z,10.2
2023-03-23T11:24:42.250Z,9.2
2023-03-23T11:29:42.160Z,6.6
2023-03-23T11:34:41.643Z,15.3
2023-03-23T11:39:41.342Z,8.9
2023-03-23T11:44:41.048Z,12.6
2023-03-23T11:49:40.934Z,9.7
2023-03-23T11:54:40.447Z,9.9
2023-03-23T11:59:40.224Z,8.0
2023-03-23T12:04:39.882Z,5.3
2023-03-23T12:14:41.647Z,6.2
2023-03-23T12:19:39.129Z,12.0
2023-03-23T12:24:38.974Z,10.1
2023-03-23T12:29:38.766Z,13.5
2023-03-23T12:34:40.631Z,7.4
2023-03-23T12:39:38.414Z,10.4
2023-03-23T12:44:38.265Z,10.4
2023-03-23T12:49:38.062Z,2.2
2023-03-23T12:54:37.878Z,12.3
2023-03-23T12:59:37.756Z,11.0
2023-03-23T13:04:37.549Z,15.2
2023-03-23T13:09:37.352Z,14.4
2023-03-23T13:14:37.273Z,6.5
2023-03-23T13:19:37.064Z,10.4
2023-03-23T13:24:36.958Z,8.8
2023-03-23T13:29:36.894Z,13.8
2023-03-23T13:34:36.492Z,9.6
2023-03-23T13:39:36.351Z,5.3
2023-03-23T13:44:36.063Z,5.5
2023-03-23T13:49:35.914Z,14.6
2023-03-23T13:54:35.752Z,5.4
2023-03-23T13:59:35.553Z,5.9
2023-03-23T14:04:35.276Z,14.6
2023-03-23T14:09:37.455Z,11.1
2023-03-23T14:14:34.813Z,11.6
2023-03-23T14:19:34.619Z,12.8
2023-03-23T14:24:34.362Z,16.0
2023-03-23T14:29:34.272Z,11.5
2023-03-23T14:39:33.617Z,9.6
2023-03-23T14:44:33.303Z,13.0
2023-03-23T14:49:33.043Z,15.1
2023-03-23T14:54:32.642Z,15.1
2023-03-23T14:59:32.408Z,4.2
2023-03-23T15:04:31.984Z,4.6
2023-03-23T15:09:31.583Z,5.9
2023-03-23T15:14:31.331Z,7.1
2023-03-23T15:19:30.838Z,3.5
2023-03-23T15:24:30.357Z,12.1
2023-03-23T15:29:30.029Z,3.0
2023-03-23T15:34:29.621Z,2.5
2023-03-23T15:39:29.368Z,6.7
2023-03-23T15:44:28.822Z,8.0
2023-03-23T15:49:28.470Z,10.2
2023-03-23T15:54:30.280Z,4.4
2023-03-23T15:59:27.625Z,4.4
2023-03-23T16:04:27.162Z,11.5
2023-03-23T16:09:26.937Z,8.8
2023-03-23T16:14:26.314Z,10.3
2023-03-23T16:19:25.879Z,1.3
2023-03-23T16:24:25.495Z,5.3
2023-03-23T16:34:24.560Z,1.8
2023-03-23T16:39:24.044Z,0.9
2023-03-23T16:49:23.074Z,1.1
2023-03-23T16:54:24.542Z,5.7
2023-03-23T16:59:22.091Z,1.1
2023-03-23T17:04:21.538Z,2.5
2023-03-23T17:09:23.416Z,1.1
2023-03-23T17:19:20.038Z,6.9
2023-03-23T17:34:19.785Z,2.5
2023-03-23T17:39:18.113Z,4.3
2023-03-23T17:44:17.677Z,2.2
2023-03-23T17:49:17.141Z,0.7
2023-03-23T17:54:18.658Z,0.8
2023-03-23T17:59:16.159Z,1.9
2023-03-23T18:04:17.678Z,0.8
2023-03-23T18:09:17.118Z,1.2
2023-03-23T18:14:14.632Z,1.3
2023-03-23T18:24:13.583Z,0.6
2023-03-23T18:29:13.188Z,0.7
2023-03-23T18:34:12.534Z,1.0
2023-03-23T18:39:12.092Z,0.4
2023-03-23T18:49:11.121Z,0.8
2023-03-23T18:54:10.419Z,0.5
2023-03-23T18:59:09.962Z,1.0
2023-03-23T19:04:09.326Z,0.9
2023-03-23T19:14:08.324Z,0.4
2023-03-23T19:19:07.691Z,1.5
2023-03-23T19:24:07.244Z,0.5
2023-03-23T19:29:24.766Z,1.0
2023-03-23T19:34:06.175Z,6.1
2023-03-23T19:39:05.597Z,1.1
2023-03-23T19:44:05.146Z,1.1
2023-03-23T19:49:04.492Z,1.4
2023-03-23T19:54:06.030Z,1.0
2023-03-23T19:59:03.374Z,18.2
2023-03-23T20:04:02.819Z,29.4
2023-03-23T20:09:02.212Z,47.0
2023-03-23T20:14:01.575Z,70.3
2023-03-23T20:19:01.059Z,42.3
2023-03-23T20:24:00.405Z,305.6
2023-03-23T20:28:59.910Z,77.9
2023-03-23T20:34:00.104Z,219.6
2023-03-23T20:38:58.932Z,79.7
2023-03-23T20:44:00.222Z,74.1
2023-03-23T20:48:57.652Z,58.1
2023-03-23T20:53:57.061Z,56.7
2023-03-23T20:58:56.573Z,54.9
2023-03-23T21:03:55.940Z,67.3
2023-03-23T21:08:55.445Z,66.7
2023-03-23T21:13:54.793Z,66.1
2023-03-23T21:18:54.417Z,51.3
2023-03-23T21:23:53.670Z,52.4
2023-03-23T21:28:53.177Z,49.8
2023-03-23T21:33:52.511Z,25.5
2023-03-23T21:38:51.909Z,16.0
2023-03-23T21:43:51.283Z,33.1
2023-03-23T21:48:50.717Z,28.7
2023-03-23T21:53:50.040Z,16.7
2023-03-23T21:58:49.543Z,13.2
2023-03-23T22:03:48.879Z,101.8
2023-03-23T22:08:48.439Z,82.4
2023-03-23T22:13:47.777Z,124.1
2023-03-23T22:18:47.369Z,56.9
2023-03-23T22:23:46.780Z,92.5
2023-03-23T22:28:46.551Z,121.0
2023-03-23T22:43:44.302Z,63.4
2023-03-23T22:48:43.757Z,98.8
2023-03-23T22:53:43.176Z,85.8
2023-03-23T22:58:42.637Z,80.7
2023-03-23T23:03:42.135Z,41.8
2023-03-23T23:08:43.978Z,40.9
2023-03-23T23:13:40.964Z,39.5
2023-03-23T23:18:42.455Z,63.7
2023-03-23T23:23:39.945Z,22.8
2023-03-23T23:28:39.400Z,12.6
2023-03-23T23:33:38.844Z,23.1
2023-03-23T23:38:38.347Z,7.4
2023-03-23T23:43:37.781Z,14.9
2023-03-23T23:48:37.308Z,24.3
2023-03-23T23:53:36.794Z,8.3
2023-03-23T23:58:36.262Z,15.2
